sensor_id;sensor_type;location;lat;lon;timestamp;P1;durP1;ratioP1;P2;durP2;ratioP2
11777;SDS011;5946;51.770;8.548;2022-10-16T00:01:59;7.93;;;5.60;;
11777;SDS011;5946;51.770;8.548;2022-10-16T00:04:25;7.90;;;5.50;;
11777;SDS011;5946;51.770;8.548;2022-10-16T00:06:51;7.87;;;5.43;;
11777;SDS011;5946;51.770;8.548;2022-10-16T00:09:16;8.30;;;6.00;;
11777;SDS011;5946;51.770;8.548;2022-10-16T00:11:42;10.63;;;5.97;;
11777;SDS011;5946;51.770;8.548;2022-10-16T00:14:10;8.23;;;6.30;;
11777;SDS011;5946;51.770;8.548;2022-10-16T00:16:36;11.07;;;5.87;;
11777;SDS011;5946;51.770;8.548;2022-10-16T00:19:02;7.43;;;5.57;;
11777;SDS011;5946;51.770;8.548;2022-10-16T00:21:29;8.37;;;5.50;;
11777;SDS011;5946;51.770;8.548;2022-10-16T00:23:56;6.53;;;5.00;;
11777;SDS011;5946;51.770;8.548;2022-10-16T00:26:24;7.10;;;5.50;;
11777;SDS011;5946;51.770;8.548;2022-10-16T00:28:50;8.03;;;5.23;;
11777;SDS011;5946;51.770;8.548;2022-10-16T00:31:17;7.47;;;6.03;;
11777;SDS011;5946;51.770;8.548;2022-10-16T00:33:43;7.33;;;5.07;;
11777;SDS011;5946;51.770;8.548;2022-10-16T00:36:11;12.80;;;6.13;;
11777;SDS011;5946;51.770;8.548;2022-10-16T00:38:37;8.57;;;5.60;;
11777;SDS011;5946;51.770;8.548;2022-10-16T00:41:04;8.43;;;6.10;;
11777;SDS011;5946;51.770;8.548;2022-10-16T00:46:03;9.73;;;5.93;;
11777;SDS011;5946;51.770;8.548;2022-10-16T00:48:29;8.37;;;6.03;;
11777;SDS011;5946;51.770;8.548;2022-10-16T00:50:56;9.43;;;6.20;;
11777;SDS011;5946;51.770;8.548;2022-10-16T00:53:23;12.47;;;6.00;;
11777;SDS011;5946;51.770;8.548;2022-10-16T00:55:50;9.47;;;6.57;;
11777;SDS011;5946;51.770;8.548;2022-10-16T00:58:16;6.77;;;6.00;;
11777;SDS011;5946;51.770;8.548;2022-10-16T01:00:42;9.03;;;6.17;;
11777;SDS011;5946;51.770;8.548;2022-10-16T01:05:50;9.93;;;6.40;;
11777;SDS011;5946;51.770;8.548;2022-10-16T01:08:26;7.10;;;5.87;;
11777;SDS011;5946;51.770;8.548;2022-10-16T01:10:57;9.23;;;5.90;;
11777;SDS011;5946;51.770;8.548;2022-10-16T01:18:20;10.73;;;6.50;;
11777;SDS011;5946;51.770;8.548;2022-10-16T01:28:45;8.33;;;6.93;;
11777;SDS011;5946;51.770;8.548;2022-10-16T01:31:14;10.57;;;7.43;;
11777;SDS011;5946;51.770;8.548;2022-10-16T01:33:45;10.53;;;7.80;;
11777;SDS011;5946;51.770;8.548;2022-10-16T01:36:13;11.87;;;7.23;;
11777;SDS011;5946;51.770;8.548;2022-10-16T01:38:40;8.87;;;7.33;;
11777;SDS011;5946;51.770;8.548;2022-10-16T01:41:09;10.47;;;7.13;;
11777;SDS011;5946;51.770;8.548;2022-10-16T01:43:38;9.47;;;7.13;;
11777;SDS011;5946;51.770;8.548;2022-10-16T01:46:06;10.07;;;7.17;;
11777;SDS011;5946;51.770;8.548;2022-10-16T01:48:33;9.10;;;7.10;;
11777;SDS011;5946;51.770;8.548;2022-10-16T01:51:01;11.13;;;7.53;;
11777;SDS011;5946;51.770;8.548;2022-10-16T01:53:29;11.33;;;7.63;;
11777;SDS011;5946;51.770;8.548;2022-10-16T01:55:56;11.37;;;7.40;;
11777;SDS011;5946;51.770;8.548;2022-10-16T01:58:23;12.60;;;7.50;;
11777;SDS011;5946;51.770;8.548;2022-10-16T02:00:50;8.67;;;6.87;;
11777;SDS011;5946;51.770;8.548;2022-10-16T02:03:18;9.93;;;6.60;;
11777;SDS011;5946;51.770;8.548;2022-10-16T02:05:54;9.47;;;7.60;;
11777;SDS011;5946;51.770;8.548;2022-10-16T02:08:21;10.87;;;7.70;;
11777;SDS011;5946;51.770;8.548;2022-10-16T02:10:48;7.83;;;7.03;;
11777;SDS011;5946;51.770;8.548;2022-10-16T02:13:28;11.13;;;7.10;;
11777;SDS011;5946;51.770;8.548;2022-10-16T02:15:55;8.23;;;6.97;;
11777;SDS011;5946;51.770;8.548;2022-10-16T02:18:22;8.77;;;7.87;;
11777;SDS011;5946;51.770;8.548;2022-10-16T02:23:16;10.20;;;7.50;;
11777;SDS011;5946;51.770;8.548;2022-10-16T02:25:44;9.77;;;8.20;;
11777;SDS011;5946;51.770;8.548;2022-10-16T02:28:14;12.13;;;7.77;;
11777;SDS011;5946;51.770;8.548;2022-10-16T02:30:43;11.97;;;8.33;;
11777;SDS011;5946;51.770;8.548;2022-10-16T02:33:11;10.37;;;8.10;;
11777;SDS011;5946;51.770;8.548;2022-10-16T02:35:38;10.57;;;7.90;;
11777;SDS011;5946;51.770;8.548;2022-10-16T02:38:05;9.73;;;7.70;;
11777;SDS011;5946;51.770;8.548;2022-10-16T02:40:31;10.13;;;8.20;;
11777;SDS011;5946;51.770;8.548;2022-10-16T02:42:58;8.30;;;7.40;;
11777;SDS011;5946;51.770;8.548;2022-10-16T02:45:24;13.87;;;8.77;;
11777;SDS011;5946;51.770;8.548;2022-10-16T02:47:50;11.30;;;7.47;;
11777;SDS011;5946;51.770;8.548;2022-10-16T02:50:16;8.30;;;7.40;;
11777;SDS011;5946;51.770;8.548;2022-10-16T02:52:42;10.53;;;8.23;;
11777;SDS011;5946;51.770;8.548;2022-10-16T02:55:08;11.00;;;7.80;;
11777;SDS011;5946;51.770;8.548;2022-10-16T02:57:34;11.43;;;7.73;;
11777;SDS011;5946;51.770;8.548;2022-10-16T03:00:02;10.77;;;6.83;;
11777;SDS011;5946;51.770;8.548;2022-10-16T03:02:28;9.10;;;6.90;;
11777;SDS011;5946;51.770;8.548;2022-10-16T03:04:54;10.20;;;8.00;;
11777;SDS011;5946;51.770;8.548;2022-10-16T03:07:20;12.33;;;7.20;;
11777;SDS011;5946;51.770;8.548;2022-10-16T03:09:46;10.90;;;7.30;;
11777;SDS011;5946;51.770;8.548;2022-10-16T03:12:12;8.03;;;7.23;;
11777;SDS011;5946;51.770;8.548;2022-10-16T03:14:38;8.67;;;7.50;;
11777;SDS011;5946;51.770;8.548;2022-10-16T03:17:05;13.80;;;7.57;;
11777;SDS011;5946;51.770;8.548;2022-10-16T03:19:31;7.70;;;6.93;;
11777;SDS011;5946;51.770;8.548;2022-10-16T03:21:57;8.40;;;6.37;;
11777;SDS011;5946;51.770;8.548;2022-10-16T03:24:23;7.67;;;6.37;;
11777;SDS011;5946;51.770;8.548;2022-10-16T03:26:49;8.07;;;6.40;;
11777;SDS011;5946;51.770;8.548;2022-10-16T03:29:15;7.47;;;6.47;;
11777;SDS011;5946;51.770;8.548;2022-10-16T03:31:41;8.20;;;5.90;;
11777;SDS011;5946;51.770;8.548;2022-10-16T03:34:07;11.77;;;6.53;;
11777;SDS011;5946;51.770;8.548;2022-10-16T03:36:33;8.27;;;6.10;;
11777;SDS011;5946;51.770;8.548;2022-10-16T03:38:59;8.30;;;5.90;;
11777;SDS011;5946;51.770;8.548;2022-10-16T03:41:25;6.77;;;6.07;;
11777;SDS011;5946;51.770;8.548;2022-10-16T03:43:51;7.03;;;5.20;;
11777;SDS011;5946;51.770;8.548;2022-10-16T03:46:17;8.27;;;5.40;;
11777;SDS011;5946;51.770;8.548;2022-10-16T03:48:43;8.63;;;4.97;;
11777;SDS011;5946;51.770;8.548;2022-10-16T03:51:09;10.03;;;4.90;;
11777;SDS011;5946;51.770;8.548;2022-10-16T03:53:35;9.10;;;4.77;;
11777;SDS011;5946;51.770;8.548;2022-10-16T03:56:01;6.10;;;4.50;;
11777;SDS011;5946;51.770;8.548;2022-10-16T03:58:27;9.30;;;4.57;;
11777;SDS011;5946;51.770;8.548;2022-10-16T04:00:53;6.57;;;4.37;;
11777;SDS011;5946;51.770;8.548;2022-10-16T04:03:19;4.97;;;3.90;;
11777;SDS011;5946;51.770;8.548;2022-10-16T04:05:46;6.87;;;3.63;;
11777;SDS011;5946;51.770;8.548;2022-10-16T04:08:12;6.63;;;4.20;;
11777;SDS011;5946;51.770;8.548;2022-10-16T04:10:38;3.83;;;3.40;;
11777;SDS011;5946;51.770;8.548;2022-10-16T04:13:04;8.90;;;4.00;;
11777;SDS011;5946;51.770;8.548;2022-10-16T04:15:30;3.87;;;3.47;;
11777;SDS011;5946;51.770;8.548;2022-10-16T04:17:56;4.90;;;3.67;;
11777;SDS011;5946;51.770;8.548;2022-10-16T04:20:22;5.17;;;3.67;;
11777;SDS011;5946;51.770;8.548;2022-10-16T04:22:48;4.77;;;3.80;;
11777;SDS011;5946;51.770;8.548;2022-10-16T04:25:14;3.73;;;3.33;;
11777;SDS011;5946;51.770;8.548;2022-10-16T04:27:40;3.90;;;3.60;;
11777;SDS011;5946;51.770;8.548;2022-10-16T04:30:06;4.57;;;3.50;;
11777;SDS011;5946;51.770;8.548;2022-10-16T04:32:32;8.03;;;3.57;;
11777;SDS011;5946;51.770;8.548;2022-10-16T04:34:58;5.57;;;3.60;;
11777;SDS011;5946;51.770;8.548;2022-10-16T04:37:24;4.37;;;3.40;;
11777;SDS011;5946;51.770;8.548;2022-10-16T04:39:50;4.63;;;3.70;;
11777;SDS011;5946;51.770;8.548;2022-10-16T04:42:17;5.43;;;3.50;;
11777;SDS011;5946;51.770;8.548;2022-10-16T04:44:43;3.27;;;2.97;;
11777;SDS011;5946;51.770;8.548;2022-10-16T04:47:09;4.40;;;3.40;;
11777;SDS011;5946;51.770;8.548;2022-10-16T04:49:34;4.37;;;2.70;;
11777;SDS011;5946;51.770;8.548;2022-10-16T04:52:00;4.17;;;2.67;;
11777;SDS011;5946;51.770;8.548;2022-10-16T04:54:26;3.10;;;2.80;;
11777;SDS011;5946;51.770;8.548;2022-10-16T04:56:52;3.67;;;2.90;;
11777;SDS011;5946;51.770;8.548;2022-10-16T04:59:19;3.97;;;3.43;;
11777;SDS011;5946;51.770;8.548;2022-10-16T05:01:45;4.57;;;2.97;;
11777;SDS011;5946;51.770;8.548;2022-10-16T05:04:11;2.97;;;2.70;;
11777;SDS011;5946;51.770;8.548;2022-10-16T05:06:37;4.63;;;2.80;;
11777;SDS011;5946;51.770;8.548;2022-10-16T05:09:04;4.43;;;3.10;;
11777;SDS011;5946;51.770;8.548;2022-10-16T05:11:30;4.53;;;2.83;;
11777;SDS011;5946;51.770;8.548;2022-10-16T05:13:56;3.50;;;2.87;;
11777;SDS011;5946;51.770;8.548;2022-10-16T05:16:22;4.33;;;3.40;;
11777;SDS011;5946;51.770;8.548;2022-10-16T05:18:48;3.70;;;2.80;;
11777;SDS011;5946;51.770;8.548;2022-10-16T05:21:14;3.10;;;2.90;;
11777;SDS011;5946;51.770;8.548;2022-10-16T05:23:40;3.30;;;3.00;;
11777;SDS011;5946;51.770;8.548;2022-10-16T05:26:06;3.40;;;3.10;;
11777;SDS011;5946;51.770;8.548;2022-10-16T05:28:32;4.37;;;3.20;;
11777;SDS011;5946;51.770;8.548;2022-10-16T05:30:58;5.43;;;3.50;;
11777;SDS011;5946;51.770;8.548;2022-10-16T05:33:25;4.50;;;2.83;;
11777;SDS011;5946;51.770;8.548;2022-10-16T05:35:51;3.20;;;2.90;;
11777;SDS011;5946;51.770;8.548;2022-10-16T05:38:17;3.57;;;3.27;;
11777;SDS011;5946;51.770;8.548;2022-10-16T05:40:49;3.77;;;3.20;;
11777;SDS011;5946;51.770;8.548;2022-10-16T05:43:15;4.63;;;3.27;;
11777;SDS011;5946;51.770;8.548;2022-10-16T05:45:41;3.43;;;3.00;;
11777;SDS011;5946;51.770;8.548;2022-10-16T05:48:07;8.50;;;3.27;;
11777;SDS011;5946;51.770;8.548;2022-10-16T05:50:33;4.03;;;2.87;;
11777;SDS011;5946;51.770;8.548;2022-10-16T05:52:59;3.80;;;2.80;;
11777;SDS011;5946;51.770;8.548;2022-10-16T05:55:25;4.30;;;3.23;;
11777;SDS011;5946;51.770;8.548;2022-10-16T05:57:53;3.80;;;3.00;;
11777;SDS011;5946;51.770;8.548;2022-10-16T06:00:19;3.73;;;3.37;;
11777;SDS011;5946;51.770;8.548;2022-10-16T06:02:45;3.70;;;2.93;;
11777;SDS011;5946;51.770;8.548;2022-10-16T06:05:11;3.30;;;3.03;;
11777;SDS011;5946;51.770;8.548;2022-10-16T06:07:37;3.80;;;3.30;;
11777;SDS011;5946;51.770;8.548;2022-10-16T06:10:04;3.67;;;3.33;;
11777;SDS011;5946;51.770;8.548;2022-10-16T06:12:30;4.00;;;3.17;;
11777;SDS011;5946;51.770;8.548;2022-10-16T06:14:56;6.23;;;3.50;;
11777;SDS011;5946;51.770;8.548;2022-10-16T06:17:22;4.03;;;3.73;;
11777;SDS011;5946;51.770;8.548;2022-10-16T06:19:48;4.20;;;3.70;;
11777;SDS011;5946;51.770;8.548;2022-10-16T06:22:14;6.03;;;4.10;;
11777;SDS011;5946;51.770;8.548;2022-10-16T06:24:41;5.67;;;4.33;;
11777;SDS011;5946;51.770;8.548;2022-10-16T06:27:06;4.77;;;4.27;;
11777;SDS011;5946;51.770;8.548;2022-10-16T06:29:32;4.67;;;4.10;;
11777;SDS011;5946;51.770;8.548;2022-10-16T06:31:59;7.63;;;3.90;;
11777;SDS011;5946;51.770;8.548;2022-10-16T06:34:25;5.90;;;3.43;;
11777;SDS011;5946;51.770;8.548;2022-10-16T06:36:51;3.97;;;3.67;;
11777;SDS011;5946;51.770;8.548;2022-10-16T06:39:17;4.93;;;3.60;;
11777;SDS011;5946;51.770;8.548;2022-10-16T06:41:43;3.73;;;3.33;;
11777;SDS011;5946;51.770;8.548;2022-10-16T06:44:09;3.30;;;3.00;;
11777;SDS011;5946;51.770;8.548;2022-10-16T06:46:34;4.93;;;3.33;;
11777;SDS011;5946;51.770;8.548;2022-10-16T06:49:00;4.90;;;3.23;;
11777;SDS011;5946;51.770;8.548;2022-10-16T06:51:26;4.03;;;3.63;;
11777;SDS011;5946;51.770;8.548;2022-10-16T06:53:53;3.17;;;2.63;;
11777;SDS011;5946;51.770;8.548;2022-10-16T06:56:22;3.13;;;2.57;;
11777;SDS011;5946;51.770;8.548;2022-10-16T06:58:49;4.27;;;2.40;;
11777;SDS011;5946;51.770;8.548;2022-10-16T07:01:16;3.40;;;2.40;;
11777;SDS011;5946;51.770;8.548;2022-10-16T07:03:43;7.90;;;2.70;;
11777;SDS011;5946;51.770;8.548;2022-10-16T07:06:10;3.17;;;2.23;;
11777;SDS011;5946;51.770;8.548;2022-10-16T07:08:37;2.67;;;2.07;;
11777;SDS011;5946;51.770;8.548;2022-10-16T07:11:07;2.97;;;2.30;;
11777;SDS011;5946;51.770;8.548;2022-10-16T07:13:34;3.30;;;1.80;;
11777;SDS011;5946;51.770;8.548;2022-10-16T07:16:04;2.03;;;1.70;;
11777;SDS011;5946;51.770;8.548;2022-10-16T07:18:30;2.80;;;2.00;;
11777;SDS011;5946;51.770;8.548;2022-10-16T07:21:02;3.83;;;1.80;;
11777;SDS011;5946;51.770;8.548;2022-10-16T07:23:28;3.37;;;1.60;;
11777;SDS011;5946;51.770;8.548;2022-10-16T07:25:54;1.70;;;1.60;;
11777;SDS011;5946;51.770;8.548;2022-10-16T07:28:20;2.03;;;1.63;;
11777;SDS011;5946;51.770;8.548;2022-10-16T07:30:46;3.17;;;2.00;;
11777;SDS011;5946;51.770;8.548;2022-10-16T07:33:13;2.47;;;1.50;;
11777;SDS011;5946;51.770;8.548;2022-10-16T07:35:47;5.60;;;1.53;;
11777;SDS011;5946;51.770;8.548;2022-10-16T07:38:13;2.67;;;1.67;;
11777;SDS011;5946;51.770;8.548;2022-10-16T07:40:38;2.53;;;1.40;;
11777;SDS011;5946;51.770;8.548;2022-10-16T07:43:04;1.70;;;1.50;;
11777;SDS011;5946;51.770;8.548;2022-10-16T07:45:30;2.47;;;1.63;;
11777;SDS011;5946;51.770;8.548;2022-10-16T07:47:56;2.83;;;1.50;;
11777;SDS011;5946;51.770;8.548;2022-10-16T07:50:22;3.27;;;1.43;;
11777;SDS011;5946;51.770;8.548;2022-10-16T07:52:48;3.17;;;1.20;;
11777;SDS011;5946;51.770;8.548;2022-10-16T07:55:14;1.97;;;1.40;;
11777;SDS011;5946;51.770;8.548;2022-10-16T07:57:42;3.07;;;1.40;;
11777;SDS011;5946;51.770;8.548;2022-10-16T08:00:08;1.87;;;1.50;;
11777;SDS011;5946;51.770;8.548;2022-10-16T08:02:38;2.90;;;1.30;;
11777;SDS011;5946;51.770;8.548;2022-10-16T08:05:05;2.40;;;1.20;;
11777;SDS011;5946;51.770;8.548;2022-10-16T08:07:31;3.27;;;1.40;;
11777;SDS011;5946;51.770;8.548;2022-10-16T08:09:57;1.57;;;1.47;;
11777;SDS011;5946;51.770;8.548;2022-10-16T08:12:24;5.23;;;1.40;;
11777;SDS011;5946;51.770;8.548;2022-10-16T08:14:50;1.83;;;1.40;;
11777;SDS011;5946;51.770;8.548;2022-10-16T08:17:16;9.23;;;1.50;;
11777;SDS011;5946;51.770;8.548;2022-10-16T08:19:45;2.80;;;1.63;;
11777;SDS011;5946;51.770;8.548;2022-10-16T08:22:12;4.53;;;1.60;;
11777;SDS011;5946;51.770;8.548;2022-10-16T08:24:38;7.17;;;1.67;;
11777;SDS011;5946;51.770;8.548;2022-10-16T08:27:04;5.23;;;1.50;;
11777;SDS011;5946;51.770;8.548;2022-10-16T08:29:30;1.40;;;1.30;;
11777;SDS011;5946;51.770;8.548;2022-10-16T08:31:56;2.13;;;1.40;;
11777;SDS011;5946;51.770;8.548;2022-10-16T08:34:22;1.73;;;1.50;;
11777;SDS011;5946;51.770;8.548;2022-10-16T08:36:48;4.80;;;1.80;;
11777;SDS011;5946;51.770;8.548;2022-10-16T08:39:14;1.43;;;1.33;;
11777;SDS011;5946;51.770;8.548;2022-10-16T08:44:36;2.93;;;1.57;;
11777;SDS011;5946;51.770;8.548;2022-10-16T08:49:33;1.60;;;1.50;;
11777;SDS011;5946;51.770;8.548;2022-10-16T08:51:59;3.00;;;1.20;;
11777;SDS011;5946;51.770;8.548;2022-10-16T08:54:35;4.37;;;1.20;;
11777;SDS011;5946;51.770;8.548;2022-10-16T08:57:13;1.40;;;1.23;;
11777;SDS011;5946;51.770;8.548;2022-10-16T08:59:39;1.40;;;1.20;;
11777;SDS011;5946;51.770;8.548;2022-10-16T09:12:22;1.20;;;1.00;;
11777;SDS011;5946;51.770;8.548;2022-10-16T09:17:28;1.80;;;1.10;;
11777;SDS011;5946;51.770;8.548;2022-10-16T09:19:58;2.90;;;1.40;;
11777;SDS011;5946;51.770;8.548;2022-10-16T09:22:29;1.20;;;1.10;;
11777;SDS011;5946;51.770;8.548;2022-10-16T09:24:59;1.57;;;0.90;;
11777;SDS011;5946;51.770;8.548;2022-10-16T09:27:26;7.13;;;1.30;;
11777;SDS011;5946;51.770;8.548;2022-10-16T09:29:52;2.13;;;1.10;;
11777;SDS011;5946;51.770;8.548;2022-10-16T09:32:19;1.43;;;0.97;;
11777;SDS011;5946;51.770;8.548;2022-10-16T09:34:47;1.43;;;1.00;;
11777;SDS011;5946;51.770;8.548;2022-10-16T09:37:14;2.07;;;1.10;;
11777;SDS011;5946;51.770;8.548;2022-10-16T09:39:47;2.60;;;1.20;;
11777;SDS011;5946;51.770;8.548;2022-10-16T09:42:14;2.53;;;1.10;;
11777;SDS011;5946;51.770;8.548;2022-10-16T09:44:40;2.17;;;1.10;;
11777;SDS011;5946;51.770;8.548;2022-10-16T09:47:17;3.67;;;1.20;;
11777;SDS011;5946;51.770;8.548;2022-10-16T09:49:52;4.30;;;1.20;;
11777;SDS011;5946;51.770;8.548;2022-10-16T09:52:19;1.93;;;1.17;;
11777;SDS011;5946;51.770;8.548;2022-10-16T09:54:48;4.03;;;1.40;;
11777;SDS011;5946;51.770;8.548;2022-10-16T09:57:15;2.70;;;1.20;;
11777;SDS011;5946;51.770;8.548;2022-10-16T09:59:48;7.03;;;1.20;;
11777;SDS011;5946;51.770;8.548;2022-10-16T10:02:15;3.33;;;1.00;;
11777;SDS011;5946;51.770;8.548;2022-10-16T10:04:43;3.73;;;1.10;;
11777;SDS011;5946;51.770;8.548;2022-10-16T10:07:17;2.67;;;1.13;;
11777;SDS011;5946;51.770;8.548;2022-10-16T10:09:44;4.27;;;1.37;;
11777;SDS011;5946;51.770;8.548;2022-10-16T10:12:27;1.70;;;0.90;;
11777;SDS011;5946;51.770;8.548;2022-10-16T10:14:55;2.47;;;1.10;;
11777;SDS011;5946;51.770;8.548;2022-10-16T10:17:22;2.50;;;1.10;;
11777;SDS011;5946;51.770;8.548;2022-10-16T10:19:50;1.77;;;1.43;;
11777;SDS011;5946;51.770;8.548;2022-10-16T10:22:38;2.43;;;1.30;;
11777;SDS011;5946;51.770;8.548;2022-10-16T10:30:41;3.40;;;0.93;;
11777;SDS011;5946;51.770;8.548;2022-10-16T10:33:27;1.73;;;0.90;;
11777;SDS011;5946;51.770;8.548;2022-10-16T10:43:37;6.83;;;1.07;;
11777;SDS011;5946;51.770;8.548;2022-10-16T10:46:05;5.00;;;0.80;;
11777;SDS011;5946;51.770;8.548;2022-10-16T10:51:28;1.80;;;0.87;;
11777;SDS011;5946;51.770;8.548;2022-10-16T11:06:46;2.10;;;0.70;;
11777;SDS011;5946;51.770;8.548;2022-10-16T11:09:15;1.67;;;0.80;;
11777;SDS011;5946;51.770;8.548;2022-10-16T11:11:47;1.27;;;0.80;;
11777;SDS011;5946;51.770;8.548;2022-10-16T11:14:24;1.90;;;0.60;;
11777;SDS011;5946;51.770;8.548;2022-10-16T11:16:53;2.30;;;0.80;;
11777;SDS011;5946;51.770;8.548;2022-10-16T11:27:12;1.13;;;0.67;;
11777;SDS011;5946;51.770;8.548;2022-10-16T11:29:43;0.77;;;0.70;;
11777;SDS011;5946;51.770;8.548;2022-10-16T11:32:21;1.77;;;0.80;;
11777;SDS011;5946;51.770;8.548;2022-10-16T11:34:49;2.23;;;0.80;;
11777;SDS011;5946;51.770;8.548;2022-10-16T11:37:18;2.87;;;1.03;;
11777;SDS011;5946;51.770;8.548;2022-10-16T11:39:46;2.63;;;0.90;;
11777;SDS011;5946;51.770;8.548;2022-10-16T11:42:19;5.87;;;0.90;;
11777;SDS011;5946;51.770;8.548;2022-10-16T11:49:49;1.87;;;0.80;;
11777;SDS011;5946;51.770;8.548;2022-10-16T11:52:17;2.77;;;0.73;;
11777;SDS011;5946;51.770;8.548;2022-10-16T11:57:19;1.43;;;0.80;;
11777;SDS011;5946;51.770;8.548;2022-10-16T11:59:54;1.93;;;0.70;;
11777;SDS011;5946;51.770;8.548;2022-10-16T12:02:30;1.23;;;0.70;;
11777;SDS011;5946;51.770;8.548;2022-10-16T12:05:05;1.60;;;0.70;;
11777;SDS011;5946;51.770;8.548;2022-10-16T12:07:34;4.17;;;0.80;;
11777;SDS011;5946;51.770;8.548;2022-10-16T12:10:22;2.00;;;0.60;;
11777;SDS011;5946;51.770;8.548;2022-10-16T12:12:48;1.43;;;0.60;;
11777;SDS011;5946;51.770;8.548;2022-10-16T12:15:22;2.87;;;0.90;;
11777;SDS011;5946;51.770;8.548;2022-10-16T12:17:48;2.05;;;0.70;;
11777;SDS011;5946;51.770;8.548;2022-10-16T12:20:19;1.37;;;0.63;;
11777;SDS011;5946;51.770;8.548;2022-10-16T12:28:38;3.20;;;0.67;;
11777;SDS011;5946;51.770;8.548;2022-10-16T12:30:39;1.03;;;0.60;;
11777;SDS011;5946;51.770;8.548;2022-10-16T12:33:15;2.83;;;0.80;;
11777;SDS011;5946;51.770;8.548;2022-10-16T12:35:44;1.57;;;0.70;;
11777;SDS011;5946;51.770;8.548;2022-10-16T12:38:15;1.27;;;0.70;;
11777;SDS011;5946;51.770;8.548;2022-10-16T12:40:41;3.33;;;0.87;;
11777;SDS011;5946;51.770;8.548;2022-10-16T12:43:12;4.10;;;0.70;;
11777;SDS011;5946;51.770;8.548;2022-10-16T12:45:39;3.27;;;0.77;;
11777;SDS011;5946;51.770;8.548;2022-10-16T12:48:18;2.90;;;0.70;;
11777;SDS011;5946;51.770;8.548;2022-10-16T12:50:44;1.37;;;0.60;;
11777;SDS011;5946;51.770;8.548;2022-10-16T12:53:17;2.70;;;0.70;;
11777;SDS011;5946;51.770;8.548;2022-10-16T12:56:30;2.70;;;1.10;;
11777;SDS011;5946;51.770;8.548;2022-10-16T12:58:55;3.17;;;1.47;;
11777;SDS011;5946;51.770;8.548;2022-10-16T13:12:00;2.63;;;0.90;;
11777;SDS011;5946;51.770;8.548;2022-10-16T13:22:32;3.33;;;0.83;;
11777;SDS011;5946;51.770;8.548;2022-10-16T13:25:04;3.97;;;0.90;;
11777;SDS011;5946;51.770;8.548;2022-10-16T13:27:43;4.97;;;0.60;;
11777;SDS011;5946;51.770;8.548;2022-10-16T13:30:58;2.27;;;0.70;;
11777;SDS011;5946;51.770;8.548;2022-10-16T13:33:02;6.17;;;0.80;;
11777;SDS011;5946;51.770;8.548;2022-10-16T13:35:30;2.40;;;0.70;;
11777;SDS011;5946;51.770;8.548;2022-10-16T13:38:31;1.27;;;0.80;;
11777;SDS011;5946;51.770;8.548;2022-10-16T13:43:18;1.43;;;0.80;;
11777;SDS011;5946;51.770;8.548;2022-10-16T13:48:20;2.10;;;0.60;;
11777;SDS011;5946;51.770;8.548;2022-10-16T13:50:46;3.23;;;0.90;;
11777;SDS011;5946;51.770;8.548;2022-10-16T13:53:13;2.57;;;0.80;;
11777;SDS011;5946;51.770;8.548;2022-10-16T13:55:39;2.73;;;0.90;;
11777;SDS011;5946;51.770;8.548;2022-10-16T13:58:11;2.97;;;0.70;;
11777;SDS011;5946;51.770;8.548;2022-10-16T14:00:37;0.97;;;0.60;;
11777;SDS011;5946;51.770;8.548;2022-10-16T14:03:11;2.60;;;0.90;;
11777;SDS011;5946;51.770;8.548;2022-10-16T14:08:13;2.90;;;0.73;;
11777;SDS011;5946;51.770;8.548;2022-10-16T14:10:40;3.67;;;0.90;;
11777;SDS011;5946;51.770;8.548;2022-10-16T14:13:06;1.43;;;0.77;;
11777;SDS011;5946;51.770;8.548;2022-10-16T14:15:34;2.57;;;1.10;;
11777;SDS011;5946;51.770;8.548;2022-10-16T14:18:00;2.30;;;0.80;;
11777;SDS011;5946;51.770;8.548;2022-10-16T14:20:27;2.07;;;0.70;;
11777;SDS011;5946;51.770;8.548;2022-10-16T14:22:58;4.83;;;0.70;;
11777;SDS011;5946;51.770;8.548;2022-10-16T14:25:26;0.83;;;0.70;;
11777;SDS011;5946;51.770;8.548;2022-10-16T14:28:14;1.53;;;0.70;;
11777;SDS011;5946;51.770;8.548;2022-10-16T14:30:57;3.70;;;0.70;;
11777;SDS011;5946;51.770;8.548;2022-10-16T14:33:24;2.13;;;1.10;;
11777;SDS011;5946;51.770;8.548;2022-10-16T14:38:35;0.87;;;0.60;;
11777;SDS011;5946;51.770;8.548;2022-10-16T14:41:01;1.03;;;0.80;;
11777;SDS011;5946;51.770;8.548;2022-10-16T14:43:39;1.87;;;0.70;;
11777;SDS011;5946;51.770;8.548;2022-10-16T14:46:06;2.87;;;0.70;;
11777;SDS011;5946;51.770;8.548;2022-10-16T14:48:35;1.43;;;0.70;;
11777;SDS011;5946;51.770;8.548;2022-10-16T14:51:01;0.70;;;0.70;;
11777;SDS011;5946;51.770;8.548;2022-10-16T14:53:27;0.90;;;0.77;;
11777;SDS011;5946;51.770;8.548;2022-10-16T14:55:53;2.33;;;0.70;;
11777;SDS011;5946;51.770;8.548;2022-10-16T14:58:20;3.33;;;1.30;;
11777;SDS011;5946;51.770;8.548;2022-10-16T15:00:47;5.40;;;1.90;;
11777;SDS011;5946;51.770;8.548;2022-10-16T15:03:13;3.80;;;2.17;;
11777;SDS011;5946;51.770;8.548;2022-10-16T15:05:39;6.97;;;2.83;;
11777;SDS011;5946;51.770;8.548;2022-10-16T15:08:05;12.27;;;7.87;;
11777;SDS011;5946;51.770;8.548;2022-10-16T15:10:31;5.03;;;2.80;;
11777;SDS011;5946;51.770;8.548;2022-10-16T15:12:59;3.42;;;1.30;;
11777;SDS011;5946;51.770;8.548;2022-10-16T15:17:51;2.33;;;0.82;;
11777;SDS011;5946;51.770;8.548;2022-10-16T15:20:18;3.20;;;1.05;;
11777;SDS011;5946;51.770;8.548;2022-10-16T15:22:45;1.33;;;1.23;;
11777;SDS011;5946;51.770;8.548;2022-10-16T15:27:55;5.05;;;1.10;;
11777;SDS011;5946;51.770;8.548;2022-10-16T15:30:21;4.30;;;0.90;;
11777;SDS011;5946;51.770;8.548;2022-10-16T15:32:47;4.45;;;0.93;;
11777;SDS011;5946;51.770;8.548;2022-10-16T15:35:13;2.25;;;1.00;;
11777;SDS011;5946;51.770;8.548;2022-10-16T15:37:39;2.10;;;0.90;;
11777;SDS011;5946;51.770;8.548;2022-10-16T15:40:05;2.97;;;0.90;;
11777;SDS011;5946;51.770;8.548;2022-10-16T15:42:31;1.58;;;0.60;;
11777;SDS011;5946;51.770;8.548;2022-10-16T15:44:57;0.98;;;0.80;;
11777;SDS011;5946;51.770;8.548;2022-10-16T15:47:23;3.73;;;1.17;;
11777;SDS011;5946;51.770;8.548;2022-10-16T15:49:49;3.07;;;1.17;;
11777;SDS011;5946;51.770;8.548;2022-10-16T15:52:15;2.77;;;1.50;;
11777;SDS011;5946;51.770;8.548;2022-10-16T15:54:41;1.50;;;1.10;;
11777;SDS011;5946;51.770;8.548;2022-10-16T15:57:07;2.70;;;1.20;;
11777;SDS011;5946;51.770;8.548;2022-10-16T15:59:33;2.63;;;1.00;;
11777;SDS011;5946;51.770;8.548;2022-10-16T16:01:59;2.77;;;1.13;;
11777;SDS011;5946;51.770;8.548;2022-10-16T16:04:25;1.47;;;0.90;;
11777;SDS011;5946;51.770;8.548;2022-10-16T16:06:51;2.17;;;1.10;;
11777;SDS011;5946;51.770;8.548;2022-10-16T16:09:17;4.07;;;1.10;;
11777;SDS011;5946;51.770;8.548;2022-10-16T16:11:43;1.17;;;1.07;;
11777;SDS011;5946;51.770;8.548;2022-10-16T16:14:10;2.70;;;2.00;;
11777;SDS011;5946;51.770;8.548;2022-10-16T16:16:37;4.60;;;3.70;;
11777;SDS011;5946;51.770;8.548;2022-10-16T16:19:06;4.53;;;3.67;;
11777;SDS011;5946;51.770;8.548;2022-10-16T16:21:33;3.90;;;3.47;;
11777;SDS011;5946;51.770;8.548;2022-10-16T16:23:59;5.07;;;3.27;;
11777;SDS011;5946;51.770;8.548;2022-10-16T16:26:26;6.00;;;3.80;;
11777;SDS011;5946;51.770;8.548;2022-10-16T16:28:56;9.83;;;5.10;;
11777;SDS011;5946;51.770;8.548;2022-10-16T16:31:25;5.63;;;4.40;;
11777;SDS011;5946;51.770;8.548;2022-10-16T16:33:51;8.57;;;4.10;;
11777;SDS011;5946;51.770;8.548;2022-10-16T16:36:17;5.53;;;4.10;;
11777;SDS011;5946;51.770;8.548;2022-10-16T16:38:44;4.80;;;3.93;;
11777;SDS011;5946;51.770;8.548;2022-10-16T16:41:20;6.90;;;4.40;;
11777;SDS011;5946;51.770;8.548;2022-10-16T16:43:46;5.10;;;3.80;;
11777;SDS011;5946;51.770;8.548;2022-10-16T16:46:13;5.87;;;4.00;;
11777;SDS011;5946;51.770;8.548;2022-10-16T16:48:39;4.53;;;3.40;;
11777;SDS011;5946;51.770;8.548;2022-10-16T16:51:06;5.57;;;3.60;;
11777;SDS011;5946;51.770;8.548;2022-10-16T16:53:35;4.17;;;3.10;;
11777;SDS011;5946;51.770;8.548;2022-10-16T16:56:02;4.67;;;2.73;;
11777;SDS011;5946;51.770;8.548;2022-10-16T16:58:28;4.80;;;2.50;;
11777;SDS011;5946;51.770;8.548;2022-10-16T17:00:54;3.37;;;2.50;;
11777;SDS011;5946;51.770;8.548;2022-10-16T17:03:20;5.47;;;2.60;;
11777;SDS011;5946;51.770;8.548;2022-10-16T17:05:59;3.53;;;2.40;;
11777;SDS011;5946;51.770;8.548;2022-10-16T17:08:26;3.23;;;2.47;;